Time;durP1;ratioP1;P1;durP2;ratioP2;P2;SDS_P1;SDS_P2;PMS_P1;PMS_P2;Temp;Humidity;BMP_temperature;BMP_pressure;BME280_temperature;BME280_humidity;BME280_pressure;Samples;Min_cycle;Max_cycle;Signal;HPM_P1;HPM_P2
2021/04/04 00:01:47;;;;;;;7.70;7.50;;;21.70;93.40;;;;;;4116663;34;20749;-35
2021/04/04 00:04:14;;;;;;;7.70;7.40;;;21.70;93.40;;;;;;4116406;34;20683;-35
2021/04/04 00:06:41;;;;;;;7.87;7.60;;;21.70;93.40;;;;;;4115780;34;20785;-34
2021/04/04 00:09:07;;;;;;;7.73;7.53;;;21.70;93.40;;;;;;4105520;34;20433;-35
2021/04/04 00:11:35;;;;;;;8.37;8.07;;;21.70;93.40;;;;;;4105421;34;20402;-35
2021/04/04 00:14:02;;;;;;;7.70;7.43;;;21.70;93.40;;;;;;4117454;34;20417;-35
2021/04/04 00:16:28;;;;;;;7.50;7.30;;;21.70;93.40;;;;;;4115379;34;20405;-35
2021/04/04 00:18:55;;;;;;;7.80;7.60;;;21.70;93.40;;;;;;4102570;34;20430;-35
2021/04/04 00:21:21;;;;;;;8.20;7.90;;;21.70;93.40;;;;;;4116476;34;20433;-34
2021/04/04 00:23:48;;;;;;;8.33;8.03;;;21.70;93.40;;;;;;4116353;34;20516;-35
2021/04/04 00:26:15;;;;;;;8.40;8.10;;;21.70;93.40;;;;;;4116702;34;20647;-35
2021/04/04 00:28:42;;;;;;;8.20;7.90;;;21.70;93.40;;;;;;4114257;34;20513;-35
2021/04/04 00:31:09;;;;;;;7.70;7.50;;;21.70;93.40;;;;;;4116767;34;20757;-34
2021/04/04 00:33:35;;;;;;;7.80;7.60;;;21.70;93.40;;;;;;4116875;34;20414;-35
2021/04/04 00:36:02;;;;;;;7.70;7.50;;;21.70;93.40;;;;;;4115709;34;20484;-35
2021/04/04 00:38:29;;;;;;;8.00;7.70;;;21.70;93.40;;;;;;4116537;34;20559;-35
2021/04/04 00:40:56;;;;;;;7.87;7.67;;;21.70;93.40;;;;;;4116085;34;20393;-35
2021/04/04 00:43:22;;;;;;;7.80;7.60;;;21.70;93.40;;;;;;4115304;34;20411;-35
2021/04/04 00:45:50;;;;;;;8.27;7.97;;;21.70;93.40;;;;;;4115305;34;20381;-34
2021/04/04 00:48:16;;;;;;;7.90;7.60;;;21.70;93.40;;;;;;4114949;34;20437;-34
2021/04/04 00:50:43;;;;;;;7.93;7.70;;;21.70;93.40;;;;;;4116271;34;20419;-35
2021/04/04 00:53:10;;;;;;;7.47;7.27;;;21.70;93.40;;;;;;4115414;34;20426;-34
2021/04/04 00:55:37;;;;;;;8.20;7.90;;;21.70;93.40;;;;;;4116903;34;20424;-34
2021/04/04 00:58:04;;;;;;;7.90;7.70;;;21.70;93.40;;;;;;4115819;34;20404;-35
2021/04/04 01:00:34;;;;;;;8.00;7.70;;;21.70;93.40;;;;;;4103739;34;20398;-35
2021/04/04 01:03:02;;;;;;;7.57;7.37;;;21.70;93.40;;;;;;4115128;34;20437;-35
2021/04/04 01:05:32;;;;;;;7.80;7.50;;;21.70;93.40;;;;;;4116228;34;20432;-35
2021/04/04 01:07:59;;;;;;;7.80;7.60;;;21.70;93.40;;;;;;4115280;34;20424;-35
2021/04/04 01:10:28;;;;;;;7.73;7.50;;;21.70;93.40;;;;;;4114366;34;20436;-34
2021/04/04 01:13:03;;;;;;;7.60;7.30;;;21.70;93.40;;;;;;4114538;34;20428;-35
2021/04/04 01:15:32;;;;;;;7.53;7.33;;;21.70;93.40;;;;;;4115251;34;20476;-35
2021/04/04 01:18:04;;;;;;;8.17;7.87;;;21.70;93.40;;;;;;4115548;34;20658;-34
2021/04/04 01:20:37;;;;;;;8.53;8.13;;;21.70;93.40;;;;;;4116235;34;20420;-34
2021/04/04 01:23:15;;;;;;;7.90;7.60;;;21.70;93.40;;;;;;4117609;34;20417;-35
2021/04/04 01:25:50;;;;;;;7.60;7.30;;;21.70;93.50;;;;;;4115343;34;20687;-35
2021/04/04 01:28:24;;;;;;;7.33;7.13;;;21.70;93.40;;;;;;4116607;34;20435;-35
2021/04/04 01:30:52;;;;;;;7.10;6.90;;;21.70;93.40;;;;;;4115798;34;20734;-34
2021/04/04 01:33:20;;;;;;;7.83;7.53;;;21.70;93.40;;;;;;4114349;34;20592;-35
2021/04/04 01:35:52;;;;;;;7.37;7.17;;;21.70;93.40;;;;;;4114759;34;20425;-35
2021/04/04 01:38:22;;;;;;;7.70;7.40;;;21.70;93.40;;;;;;4116890;34;20604;-35
2021/04/04 01:40:54;;;;;;;7.50;7.20;;;21.70;93.40;;;;;;4116165;34;20393;-34
2021/04/04 01:43:23;;;;;;;7.50;7.30;;;21.70;93.40;;;;;;4116148;34;20433;-35
2021/04/04 01:45:53;;;;;;;7.90;7.60;;;21.70;93.40;;;;;;4114444;34;20655;-35
2021/04/04 01:48:20;;;;;;;7.40;7.20;;;21.70;93.40;;;;;;4114943;34;20498;-35
2021/04/04 01:50:47;;;;;;;6.90;6.70;;;21.60;93.30;;;;;;4115060;34;20421;-35
2021/04/04 01:53:16;;;;;;;7.40;7.20;;;21.70;93.40;;;;;;4112568;34;20406;-35
2021/04/04 01:55:44;;;;;;;7.67;7.47;;;21.70;93.40;;;;;;4115446;34;20404;-34
2021/04/04 01:58:12;;;;;;;7.50;7.30;;;21.60;93.40;;;;;;4115339;34;20405;-35
2021/04/04 02:00:40;;;;;;;7.70;7.50;;;21.60;93.40;;;;;;4116838;34;20429;-35
2021/04/04 02:03:08;;;;;;;7.63;7.43;;;21.60;93.40;;;;;;4116357;34;20409;-36
2021/04/04 02:05:35;;;;;;;8.20;7.90;;;21.60;93.40;;;;;;4114864;34;20417;-35
2021/04/04 02:08:07;;;;;;;7.50;7.30;;;21.60;93.40;;;;;;4114734;34;20411;-35
2021/04/04 02:10:37;;;;;;;7.40;7.20;;;21.60;93.40;;;;;;4114416;34;20409;-35
2021/04/04 02:13:08;;;;;;;7.70;7.47;;;21.70;93.40;;;;;;4114824;34;20406;-34
2021/04/04 02:15:36;;;;;;;7.73;7.53;;;21.60;93.40;;;;;;4116762;34;20409;-36
2021/04/04 02:18:08;;;;;;;7.90;7.60;;;21.60;93.40;;;;;;4117614;34;20425;-35
2021/04/04 02:20:35;;;;;;;7.80;7.50;;;21.60;93.40;;;;;;4103467;34;20411;-35
2021/04/04 02:23:05;;;;;;;7.47;7.27;;;21.60;93.40;;;;;;4115351;34;20795;-35
2021/04/04 02:25:32;;;;;;;7.13;6.93;;;21.60;93.40;;;;;;4117085;34;20443;-35
2021/04/04 02:27:59;;;;;;;7.20;7.00;;;21.60;93.40;;;;;;4117741;34;20404;-35
2021/04/04 02:30:27;;;;;;;7.47;7.23;;;21.60;93.40;;;;;;4117045;34;20507;-35
2021/04/04 02:33:00;;;;;;;7.43;7.20;;;21.60;93.40;;;;;;4115529;34;20439;-35
2021/04/04 02:35:32;;;;;;;7.50;7.30;;;21.60;93.40;;;;;;4115788;34;20595;-35
2021/04/04 02:38:02;;;;;;;7.20;7.00;;;21.60;93.40;;;;;;4117168;34;20405;-34
2021/04/04 02:40:31;;;;;;;7.33;7.10;;;21.60;93.40;;;;;;4117177;34;20429;-36
2021/04/04 02:42:59;;;;;;;7.60;7.30;;;21.60;93.40;;;;;;4116459;34;20428;-34
2021/04/04 02:45:28;;;;;;;7.60;7.40;;;21.60;93.40;;;;;;4116184;34;20386;-35
2021/04/04 02:47:59;;;;;;;7.40;7.17;;;21.60;93.40;;;;;;4115884;34;20468;-35
2021/04/04 02:50:30;;;;;;;7.83;7.63;;;21.60;93.40;;;;;;4116348;34;20428;-35
2021/04/04 02:53:00;;;;;;;7.87;7.57;;;21.60;93.40;;;;;;4116564;34;20784;-34
2021/04/04 02:55:30;;;;;;;7.70;7.50;;;21.60;93.40;;;;;;4118113;34;20402;-34
2021/04/04 02:57:59;;;;;;;7.77;7.47;;;21.60;93.40;;;;;;4116078;34;20413;-35
2021/04/04 03:00:26;;;;;;;7.40;7.20;;;21.60;93.40;;;;;;4102195;34;20718;-35
2021/04/04 03:02:55;;;;;;;7.70;7.50;;;21.60;93.40;;;;;;4116931;34;20907;-34
2021/04/04 03:05:25;;;;;;;8.13;7.83;;;21.60;93.40;;;;;;4117000;34;20507;-35
2021/04/04 03:07:54;;;;;;;7.83;7.53;;;21.60;93.40;;;;;;4117097;34;20428;-35
2021/04/04 03:10:21;;;;;;;7.47;7.27;;;21.60;93.40;;;;;;4104527;34;20506;-35
2021/04/04 03:12:50;;;;;;;8.37;8.07;;;21.60;93.40;;;;;;4114933;34;20408;-35
2021/04/04 03:15:18;;;;;;;8.10;7.83;;;21.60;93.40;;;;;;4115177;34;20464;-35
2021/04/04 03:17:46;;;;;;;8.30;8.00;;;21.60;93.40;;;;;;4115572;34;20502;-35
2021/04/04 03:20:14;;;;;;;8.07;7.77;;;21.60;93.40;;;;;;4116045;34;20443;-35
2021/04/04 03:22:45;;;;;;;7.77;7.57;;;21.60;93.40;;;;;;4115908;34;20440;-35
2021/04/04 03:25:14;;;;;;;8.00;7.70;;;21.60;93.40;;;;;;4118198;34;20580;-34
2021/04/04 03:27:44;;;;;;;7.37;7.17;;;21.60;93.40;;;;;;4117116;34;20413;-35
2021/04/04 03:30:35;;;;;;;8.00;7.80;;;21.50;93.40;;;;;;4116762;34;20433;-35
2021/04/04 03:33:02;;;;;;;8.20;7.80;;;21.60;93.40;;;;;;4114591;34;20420;-35
2021/04/04 03:35:30;;;;;;;7.57;7.37;;;21.60;93.40;;;;;;4115844;34;20473;-35
2021/04/04 03:37:59;;;;;;;8.10;7.80;;;21.60;93.40;;;;;;4117987;34;20593;-34
2021/04/04 03:40:27;;;;;;;7.60;7.40;;;21.60;93.40;;;;;;4117271;34;20500;-35
2021/04/04 03:42:54;;;;;;;8.10;7.80;;;21.60;93.40;;;;;;4115969;34;20507;-34
2021/04/04 03:45:22;;;;;;;8.20;7.90;;;21.60;93.40;;;;;;4115519;34;20501;-35
2021/04/04 03:47:50;;;;;;;7.63;7.43;;;21.60;93.40;;;;;;4116629;34;20403;-35
2021/04/04 03:50:19;;;;;;;8.30;8.00;;;21.60;93.40;;;;;;4116440;34;20405;-35
2021/04/04 03:52:47;;;;;;;7.97;7.67;;;21.60;93.40;;;;;;4115668;34;20483;-35
2021/04/04 03:55:19;;;;;;;7.70;7.50;;;21.50;93.40;;;;;;4115684;34;20409;-34
2021/04/04 03:57:49;;;;;;;7.90;7.60;;;21.50;93.40;;;;;;4115147;34;20428;-34
2021/04/04 04:00:20;;;;;;;8.17;7.87;;;21.50;93.40;;;;;;4116423;34;20390;-34
2021/04/04 04:02:48;;;;;;;7.57;7.37;;;21.50;93.40;;;;;;4116241;34;20764;-34
2021/04/04 04:05:17;;;;;;;7.50;7.30;;;21.50;93.40;;;;;;4117181;34;20432;-35
2021/04/04 04:07:45;;;;;;;7.23;7.03;;;21.50;93.40;;;;;;4117042;34;20742;-35
2021/04/04 04:10:14;;;;;;;7.77;7.47;;;21.50;93.40;;;;;;4116326;34;20799;-35
2021/04/04 04:12:41;;;;;;;7.50;7.30;;;21.50;93.40;;;;;;4116368;34;20425;-35
2021/04/04 04:15:11;;;;;;;8.00;7.70;;;21.50;93.40;;;;;;4117213;34;20495;-35
2021/04/04 04:17:39;;;;;;;7.50;7.20;;;21.50;93.40;;;;;;4114762;34;20440;-34
2021/04/04 04:20:08;;;;;;;7.53;7.30;;;21.50;93.40;;;;;;4114821;34;20470;-35
2021/04/04 04:22:35;;;;;;;7.30;7.10;;;21.50;93.40;;;;;;4115921;34;20526;-34
2021/04/04 04:25:02;;;;;;;7.40;7.10;;;21.50;93.40;;;;;;4116519;34;20728;-35
2021/04/04 04:27:31;;;;;;;7.67;7.37;;;21.50;93.40;;;;;;4116011;34;20409;-35
2021/04/04 04:30:00;;;;;;;7.47;7.27;;;21.50;93.40;;;;;;4115420;34;20428;-34
2021/04/04 04:32:29;;;;;;;7.57;7.37;;;21.50;93.40;;;;;;4115463;34;20424;-35
2021/04/04 04:34:57;;;;;;;7.77;7.57;;;21.50;93.40;;;;;;4115551;34;20449;-34
2021/04/04 04:37:24;;;;;;;8.07;7.80;;;21.50;93.40;;;;;;4115368;34;20413;-35
2021/04/04 04:39:51;;;;;;;8.00;7.80;;;21.50;93.40;;;;;;4116003;34;20412;-35
2021/04/04 04:42:19;;;;;;;7.90;7.60;;;21.50;93.40;;;;;;4114792;34;20751;-35
2021/04/04 04:44:48;;;;;;;7.77;7.47;;;21.50;93.40;;;;;;4114365;34;20848;-34
2021/04/04 04:47:15;;;;;;;7.80;7.60;;;21.50;93.40;;;;;;4116352;34;20428;-35
2021/04/04 04:49:44;;;;;;;7.80;7.60;;;21.50;93.40;;;;;;4115599;34;20425;-35
2021/04/04 04:52:11;;;;;;;7.43;7.23;;;21.50;93.40;;;;;;4114212;34;20448;-34
2021/04/04 04:54:41;;;;;;;7.50;7.30;;;21.50;93.40;;;;;;4116116;34;20913;-35
2021/04/04 04:57:09;;;;;;;7.80;7.50;;;21.50;93.40;;;;;;4116615;34;20421;-34
2021/04/04 04:59:36;;;;;;;8.30;8.00;;;21.50;93.40;;;;;;4116184;34;20395;-35
2021/04/04 05:02:05;;;;;;;8.37;8.07;;;21.50;93.40;;;;;;4116794;34;20420;-34
2021/04/04 05:04:32;;;;;;;7.60;7.40;;;21.50;93.40;;;;;;4117787;34;20421;-35
2021/04/04 05:07:00;;;;;;;8.03;7.73;;;21.50;93.40;;;;;;4116760;34;20481;-35
2021/04/04 05:09:28;;;;;;;7.90;7.70;;;21.50;93.40;;;;;;4117128;34;20528;-35
2021/04/04 05:11:57;;;;;;;7.47;7.27;;;21.50;93.40;;;;;;4115179;34;20519;-35
2021/04/04 05:15:49;;;;;;;7.73;7.53;;;21.50;93.40;;;;;;3626172;39;20562;-33
2021/04/04 05:18:16;;;;;;;7.33;7.13;;;21.50;93.40;;;;;;3625546;39;20485;-34
2021/04/04 05:20:45;;;;;;;7.27;7.07;;;21.50;93.40;;;;;;3624272;39;20856;-33
2021/04/04 05:23:19;;;;;;;7.50;7.30;;;21.50;93.40;;;;;;3624024;39;20494;-33
2021/04/04 05:25:46;;;;;;;7.60;7.40;;;21.40;93.40;;;;;;3624509;39;20848;-33
2021/04/04 05:28:13;;;;;;;7.63;7.43;;;21.50;93.40;;;;;;3623856;39;20730;-36
2021/04/04 05:30:39;;;;;;;7.50;7.30;;;21.40;93.40;;;;;;3623059;39;20474;-35
2021/04/04 05:33:07;;;;;;;8.10;7.80;;;21.40;93.40;;;;;;3624563;39;20484;-35
2021/04/04 05:35:38;;;;;;;7.70;7.50;;;21.40;93.40;;;;;;3624105;39;20504;-36
2021/04/04 05:38:06;;;;;;;7.57;7.37;;;21.40;93.40;;;;;;3624835;39;20481;-36
2021/04/04 05:40:34;;;;;;;7.50;7.30;;;21.40;93.70;;;;;;3624610;39;20509;-35
2021/04/04 05:43:02;;;;;;;7.80;7.50;;;21.40;93.40;;;;;;3622573;39;20824;-35
2021/04/04 05:45:34;;;;;;;7.70;7.50;;;21.40;93.50;;;;;;3624586;39;20481;-35
2021/04/04 05:48:24;;;;;;;7.80;7.60;;;21.40;93.50;;;;;;3624264;39;20503;-36
2021/04/04 05:51:27;;;;;;;7.93;7.67;;;21.40;93.50;;;;;;3623208;39;21017;-34
2021/04/04 05:54:16;;;;;;;7.80;7.60;;;21.40;93.50;;;;;;3615818;39;20526;-35
2021/04/04 05:56:49;;;;;;;7.80;7.60;;;21.40;93.50;;;;;;3623721;39;20481;-35
2021/04/04 05:59:23;;;;;;;8.03;7.83;;;21.40;93.40;;;;;;3623569;39;20500;-36
2021/04/04 06:02:06;;;;;;;8.40;8.10;;;21.40;93.50;;;;;;3622493;39;20496;-35
2021/04/04 06:04:54;;;;;;;8.33;8.03;;;21.40;93.50;;;;;;3624137;39;21113;-36
2021/04/04 06:07:51;;;;;;;7.80;7.60;;;21.40;93.80;;;;;;3623654;39;20481;-34
2021/04/04 06:10:22;;;;;;;8.00;7.80;;;21.40;93.50;;;;;;3623301;39;20495;-35
2021/04/04 06:13:16;;;;;;;7.90;7.70;;;21.40;93.50;;;;;;3623874;39;20593;-35
2021/04/04 06:15:54;;;;;;;7.87;7.67;;;21.40;93.60;;;;;;3623518;39;20871;-35
2021/04/04 06:18:35;;;;;;;8.00;7.80;;;21.40;93.50;;;;;;3622934;39;20488;-35
2021/04/04 06:21:12;;;;;;;7.73;7.53;;;21.40;93.60;;;;;;3623794;39;20563;-36
2021/04/04 06:23:46;;;;;;;8.10;7.90;;;21.40;93.50;;;;;;3623151;39;20494;-35
2021/04/04 06:26:26;;;;;;;7.63;7.43;;;21.40;93.60;;;;;;3618706;39;20958;-34
2021/04/04 06:28:59;;;;;;;8.60;8.30;;;21.40;93.60;;;;;;3616936;39;20474;-36
2021/04/04 06:31:36;;;;;;;7.83;7.63;;;21.40;93.60;;;;;;3615954;39;20513;-34
2021/04/04 06:34:09;;;;;;;8.30;8.10;;;21.40;93.60;;;;;;3616448;39;20491;-35
2021/04/04 06:36:46;;;;;;;8.60;8.30;;;21.40;93.60;;;;;;3615897;39;20481;-35
2021/04/04 06:39:21;;;;;;;8.17;7.90;;;21.40;93.60;;;;;;3616592;39;20804;-35
2021/04/04 06:42:09;;;;;;;8.00;7.70;;;21.40;93.60;;;;;;3616603;39;20827;-35
2021/04/04 06:44:54;;;;;;;8.10;7.90;;;21.30;93.60;;;;;;3617207;39;20497;-35
2021/04/04 06:47:33;;;;;;;8.33;8.03;;;21.40;93.60;;;;;;3617234;39;20474;-35
2021/04/04 06:50:10;;;;;;;7.97;7.77;;;21.40;93.60;;;;;;3617439;39;20477;-34
2021/04/04 06:52:53;;;;;;;8.50;8.20;;;21.40;93.60;;;;;;3618382;39;20477;-35
2021/04/04 06:55:30;;;;;;;8.33;8.03;;;21.40;93.60;;;;;;3617172;39;20786;-34
2021/04/04 06:58:17;;;;;;;8.40;8.13;;;21.30;93.60;;;;;;3617407;39;20473;-33
2021/04/04 07:00:54;;;;;;;8.50;8.20;;;21.30;93.60;;;;;;3617922;39;20535;-35
2021/04/04 07:03:27;;;;;;;8.63;8.33;;;21.30;93.60;;;;;;3617570;39;20490;-35
2021/04/04 07:06:02;;;;;;;8.50;8.20;;;21.40;93.70;;;;;;3616821;39;20491;-34
2021/04/04 07:08:49;;;;;;;8.97;8.67;;;21.30;93.70;;;;;;3616191;39;20708;-35
2021/04/04 07:11:32;;;;;;;8.40;8.10;;;21.30;93.70;;;;;;3615471;39;20550;-36
2021/04/04 07:14:33;;;;;;;8.20;7.90;;;21.30;93.70;;;;;;3616940;39;20813;-35
2021/04/04 07:17:36;;;;;;;8.40;8.10;;;21.30;93.70;;;;;;3616962;39;20823;-35
2021/04/04 07:20:13;;;;;;;8.80;8.40;;;21.30;93.70;;;;;;3616498;39;20481;-35
2021/04/04 07:23:09;;;;;;;8.57;8.27;;;21.30;93.70;;;;;;3616657;39;20465;-35
2021/04/04 07:25:41;;;;;;;7.90;7.70;;;21.30;93.80;;;;;;3614922;39;20546;-34
2021/04/04 07:28:14;;;;;;;7.67;7.47;;;21.30;93.80;;;;;;3615597;39;20531;-35
2021/04/04 07:30:44;;;;;;;7.67;7.47;;;21.30;93.80;;;;;;3615571;39;20840;-35
2021/04/04 07:33:33;;;;;;;8.27;7.97;;;21.30;93.80;;;;;;3616684;39;20849;-35
2021/04/04 07:36:07;;;;;;;7.83;7.63;;;21.30;93.90;;;;;;3615979;39;20493;-34
2021/04/04 07:38:45;;;;;;;8.20;7.90;;;21.30;93.80;;;;;;3614730;39;20593;-34
2021/04/04 07:41:21;;;;;;;7.83;7.57;;;21.30;93.90;;;;;;3614513;39;20606;-35
2021/04/04 07:43:53;;;;;;;8.37;8.03;;;21.30;93.90;;;;;;3614111;39;20887;-35
2021/04/04 07:46:23;;;;;;;7.77;7.57;;;21.30;93.90;;;;;;3613777;39;20809;-35
2021/04/04 07:49:01;;;;;;;7.60;7.40;;;21.30;93.90;;;;;;3613489;39;20494;-35
2021/04/04 07:51:30;;;;;;;7.50;7.30;;;21.30;94.00;;;;;;3614675;39;20470;-34
2021/04/04 07:54:03;;;;;;;7.33;7.13;;;21.30;94.00;;;;;;3614957;39;20488;-35
2021/04/04 07:56:39;;;;;;;7.47;7.23;;;21.30;94.00;;;;;;3615516;39;20479;-35
2021/04/04 07:59:17;;;;;;;7.97;7.70;;;21.30;94.00;;;;;;3615374;39;20778;-35
2021/04/04 08:01:51;;;;;;;7.77;7.57;;;21.30;94.00;;;;;;3614665;39;20683;-35
2021/04/04 08:04:27;;;;;;;8.17;7.97;;;21.30;94.00;;;;;;3615465;39;20874;-34
2021/04/04 08:06:58;;;;;;;7.60;7.40;;;21.30;94.00;;;;;;3615570;39;20820;-35
2021/04/04 08:09:31;;;;;;;7.53;7.33;;;21.30;94.00;;;;;;3613397;39;20465;-36
2021/04/04 08:12:14;;;;;;;7.70;7.50;;;21.30;94.10;;;;;;3603740;39;20478;-35
2021/04/04 08:14:50;;;;;;;7.63;7.43;;;21.30;94.10;;;;;;3604778;39;20590;-35
2021/04/04 08:17:17;;;;;;;7.87;7.67;;;21.30;94.10;;;;;;3602480;39;20734;-35
2021/04/04 08:19:51;;;;;;;8.00;7.80;;;21.30;94.10;;;;;;3601580;39;20491;-35
2021/04/04 08:22:25;;;;;;;8.13;7.83;;;21.30;94.10;;;;;;3605060;39;20508;-35
2021/04/04 08:24:59;;;;;;;8.00;7.77;;;21.30;94.10;;;;;;3614161;39;20868;-35
2021/04/04 08:27:32;;;;;;;8.13;7.87;;;21.30;94.10;;;;;;3612555;39;20500;-34
2021/04/04 08:30:08;;;;;;;8.00;7.80;;;21.30;94.10;;;;;;3614531;39;20693;-34
2021/04/04 08:32:40;;;;;;;7.87;7.57;;;21.30;94.10;;;;;;3612816;39;20517;-34
2021/04/04 08:35:09;;;;;;;8.20;7.90;;;21.30;94.10;;;;;;3614628;39;20591;-35
2021/04/04 08:37:43;;;;;;;7.87;7.60;;;21.30;94.10;;;;;;3612742;39;20725;-35
2021/04/04 08:40:14;;;;;;;7.93;7.70;;;21.30;94.10;;;;;;3612283;39;20584;-35
2021/04/04 08:42:43;;;;;;;7.63;7.43;;;21.30;94.20;;;;;;3614309;39;20488;-35
2021/04/04 08:45:15;;;;;;;8.23;7.93;;;21.30;94.10;;;;;;3612028;39;20604;-35
2021/04/04 08:47:44;;;;;;;7.60;7.40;;;21.30;94.10;;;;;;3613654;39;20495;-34
2021/04/04 08:50:14;;;;;;;8.63;8.33;;;21.30;94.20;;;;;;3614289;39;20808;-35
2021/04/04 08:52:50;;;;;;;7.87;7.60;;;21.30;94.20;;;;;;3614986;39;20514;-35
2021/04/04 08:55:22;;;;;;;8.03;7.73;;;21.30;94.20;;;;;;3614943;39;20667;-35
2021/04/04 08:57:51;;;;;;;8.00;7.70;;;21.30;94.20;;;;;;3614606;39;20492;-35
2021/04/04 09:00:19;;;;;;;7.80;7.60;;;21.30;94.20;;;;;;3613417;39;20484;-34
2021/04/04 09:02:53;;;;;;;7.60;7.40;;;21.30;94.20;;;;;;3611133;39;20501;-34
2021/04/04 09:05:21;;;;;;;8.50;8.20;;;21.30;94.20;;;;;;3615267;39;20478;-35
2021/04/04 09:07:48;;;;;;;7.60;7.40;;;21.30;94.20;;;;;;3614831;39;20812;-35
2021/04/04 09:10:17;;;;;;;7.70;7.50;;;21.30;94.20;;;;;;3615072;39;20505;-35
2021/04/04 09:12:45;;;;;;;8.00;7.70;;;21.30;94.20;;;;;;3613895;39;20482;-35
2021/04/04 09:15:13;;;;;;;7.70;7.50;;;21.30;94.20;;;;;;3615109;39;20502;-35
2021/04/04 09:17:52;;;;;;;8.13;7.83;;;21.30;94.20;;;;;;3614057;39;20478;-35
2021/04/04 09:20:31;;;;;;;7.80;7.60;;;21.30;94.20;;;;;;3615454;39;20478;-34
2021/04/04 09:23:00;;;;;;;7.77;7.57;;;21.30;94.20;;;;;;3614260;39;20533;-34
2021/04/04 09:25:28;;;;;;;7.60;7.40;;;21.30;94.20;;;;;;3614095;39;20826;-35
2021/04/04 09:27:57;;;;;;;7.37;7.17;;;21.30;94.20;;;;;;3613921;39;20530;-34
2021/04/04 09:30:34;;;;;;;8.03;7.73;;;21.30;94.20;;;;;;3614923;39;20486;-36
2021/04/04 09:33:03;;;;;;;7.30;7.10;;;21.30;94.20;;;;;;3612926;39;20476;-34
2021/04/04 09:35:30;;;;;;;7.37;7.17;;;21.20;94.20;;;;;;3613596;39;20494;-35
2021/04/04 09:38:03;;;;;;;7.50;7.30;;;21.20;94.50;;;;;;3613686;39;20629;-35
2021/04/04 09:40:31;;;;;;;7.50;7.30;;;21.30;94.20;;;;;;3613925;39;20481;-34
2021/04/04 09:43:05;;;;;;;7.23;7.03;;;21.20;94.20;;;;;;3612941;39;20836;-34
2021/04/04 09:45:33;;;;;;;8.00;7.70;;;21.20;94.20;;;;;;3612812;39;20958;-35
2021/04/04 09:48:16;;;;;;;7.50;7.30;;;21.20;94.20;;;;;;3612339;39;20482;-34
2021/04/04 09:50:43;;;;;;;7.73;7.50;;;21.20;94.20;;;;;;3613664;39;20681;-34
2021/04/04 09:53:09;;;;;;;7.60;7.40;;;21.20;94.20;;;;;;3612804;39;20482;-35
2021/04/04 09:55:43;;;;;;;7.37;7.17;;;21.20;94.20;;;;;;3612804;39;20781;-34
2021/04/04 09:58:11;;;;;;;7.37;7.17;;;21.20;94.20;;;;;;3612789;39;20500;-34
2021/04/04 10:00:39;;;;;;;7.53;7.33;;;21.20;94.20;;;;;;3612947;39;20481;-35
2021/04/04 10:03:11;;;;;;;7.90;7.60;;;21.20;94.20;;;;;;3613606;39;20593;-34
2021/04/04 10:05:40;;;;;;;7.80;7.60;;;21.20;94.20;;;;;;3614517;39;20749;-35
2021/04/04 10:08:11;;;;;;;7.80;7.53;;;21.20;94.20;;;;;;3614361;39;20486;-34
2021/04/04 10:10:40;;;;;;;7.90;7.70;;;21.20;94.20;;;;;;3614880;39;20486;-35
2021/04/04 10:13:07;;;;;;;7.43;7.23;;;21.20;94.20;;;;;;3616031;39;20781;-35
2021/04/04 10:15:40;;;;;;;7.70;7.50;;;21.20;94.20;;;;;;3614863;39;20513;-34
2021/04/04 10:18:07;;;;;;;7.93;7.63;;;21.20;94.30;;;;;;3613997;39;20469;-34
2021/04/04 10:20:35;;;;;;;8.10;7.90;;;21.20;94.30;;;;;;3615472;39;20789;-34
2021/04/04 10:23:03;;;;;;;7.90;7.70;;;21.20;94.30;;;;;;3614462;39;20490;-35
2021/04/04 10:25:29;;;;;;;8.57;8.27;;;21.20;94.30;;;;;;3615373;39;20574;-35
2021/04/04 10:28:02;;;;;;;7.53;7.33;;;21.20;94.30;;;;;;3615785;39;20604;-34
2021/04/04 10:30:31;;;;;;;7.60;7.40;;;21.20;94.30;;;;;;3615868;39;20517;-35
2021/04/04 10:33:18;;;;;;;7.90;7.60;;;21.20;94.60;;;;;;3616520;39;20578;-35
2021/04/04 10:35:45;;;;;;;7.40;7.20;;;21.20;94.30;;;;;;3615342;39;20607;-35
2021/04/04 10:38:14;;;;;;;7.97;7.70;;;21.20;94.30;;;;;;3616421;39;20908;-35
2021/04/04 10:40:43;;;;;;;7.80;7.60;;;21.20;94.30;;;;;;3616441;39;20725;-35
2021/04/04 10:43:11;;;;;;;7.80;7.60;;;21.20;94.30;;;;;;3615259;39;20764;-35
2021/04/04 10:45:54;;;;;;;7.80;7.60;;;21.20;94.30;;;;;;3613576;39;20824;-35
2021/04/04 10:48:21;;;;;;;7.87;7.67;;;21.20;94.30;;;;;;3615696;39;20716;-35
2021/04/04 10:50:48;;;;;;;7.80;7.60;;;21.20;94.30;;;;;;3615883;39;20493;-35
2021/04/04 10:53:17;;;;;;;8.07;7.87;;;21.20;94.30;;;;;;3614996;39;20602;-35
2021/04/04 10:55:44;;;;;;;8.03;7.80;;;21.20;94.30;;;;;;3614440;39;20474;-35
2021/04/04 10:58:13;;;;;;;8.30;8.00;;;21.20;94.30;;;;;;3614663;39;20492;-35
2021/04/04 11:00:41;;;;;;;8.40;8.10;;;21.20;94.30;;;;;;3614279;39;20477;-34
2021/04/04 11:03:08;;;;;;;8.70;8.40;;;21.20;94.30;;;;;;3615425;39;20836;-35
2021/04/04 11:05:37;;;;;;;8.10;7.90;;;21.20;94.30;;;;;;3616652;39;20480;-34
2021/04/04 11:08:04;;;;;;;8.37;8.10;;;21.20;94.30;;;;;;3615051;39;20947;-34
2021/04/04 11:10:31;;;;;;;7.40;7.20;;;21.20;94.30;;;;;;3611863;39;20478;-35
2021/04/04 11:13:00;;;;;;;7.00;6.80;;;21.20;94.30;;;;;;3615363;39;20734;-35
2021/04/04 11:15:29;;;;;;;7.70;7.50;;;21.20;94.30;;;;;;3615714;39;20698;-35
2021/04/04 11:17:59;;;;;;;7.60;7.40;;;21.20;94.30;;;;;;3613744;39;20490;-34
2021/04/04 11:20:27;;;;;;;7.70;7.50;;;21.20;94.30;;;;;;3612726;39;20510;-34
2021/04/04 11:22:55;;;;;;;7.83;7.63;;;21.20;94.40;;;;;;3614800;39;20523;-35
2021/04/04 11:25:29;;;;;;;8.40;8.10;;;21.20;94.40;;;;;;3616099;39;20562;-35
2021/04/04 11:27:56;;;;;;;7.97;7.77;;;21.20;94.40;;;;;;3615162;39;20888;-36
2021/04/04 11:30:40;;;;;;;8.17;7.97;;;21.20;94.40;;;;;;3614747;39;20478;-34
2021/04/04 11:33:25;;;;;;;8.27;8.03;;;21.20;94.40;;;;;;3615234;39;20574;-34
2021/04/04 11:36:00;;;;;;;8.13;7.93;;;21.20;94.40;;;;;;3614531;39;20906;-35
2021/04/04 11:38:29;;;;;;;8.47;8.17;;;21.20;94.40;;;;;;3613716;39;20879;-35
2021/04/04 11:41:15;;;;;;;8.20;7.90;;;21.20;94.50;;;;;;3615872;39;20490;-35
2021/04/04 11:43:42;;;;;;;8.33;8.13;;;21.20;94.50;;;;;;3615642;39;20482;-35
2021/04/04 11:46:39;;;;;;;8.03;7.77;;;21.20;94.40;;;;;;3614116;39;20491;-34
2021/04/04 11:49:34;;;;;;;8.17;7.87;;;21.20;94.40;;;;;;3615249;39;20850;-34
2021/04/04 11:52:35;;;;;;;7.63;7.37;;;21.20;94.40;;;;;;3614881;39;20471;-34
2021/04/04 11:55:05;;;;;;;7.53;7.33;;;21.20;94.40;;;;;;3614317;39;20490;-34
2021/04/04 11:57:33;;;;;;;7.40;7.20;;;21.20;94.40;;;;;;3613848;39;20729;-35
2021/04/04 12:00:03;;;;;;;7.30;7.10;;;21.20;94.40;;;;;;3614484;39;20882;-34
2021/04/04 12:02:33;;;;;;;7.33;7.13;;;21.20;94.50;;;;;;3615358;39;20477;-35
2021/04/04 12:05:01;;;;;;;7.40;7.17;;;21.20;94.50;;;;;;3613745;39;20523;-35
2021/04/04 12:07:28;;;;;;;7.00;6.80;;;21.20;94.50;;;;;;3613494;39;20594;-35
2021/04/04 12:09:56;;;;;;;7.47;7.27;;;21.20;94.50;;;;;;3613978;39;20487;-35
2021/04/04 12:12:30;;;;;;;8.00;7.80;;;21.20;94.50;;;;;;3612154;39;20880;-35
2021/04/04 12:14:57;;;;;;;8.20;8.00;;;21.20;94.50;;;;;;3613138;39;20589;-35
2021/04/04 12:17:26;;;;;;;8.30;8.10;;;21.20;94.50;;;;;;3613588;39;20491;-34
2021/04/04 12:19:54;;;;;;;7.97;7.77;;;21.20;94.50;;;;;;3612651;39;20587;-33
2021/04/04 12:22:32;;;;;;;7.87;7.67;;;21.20;94.50;;;;;;3613438;39;20584;-34
2021/04/04 12:24:59;;;;;;;8.00;7.80;;;21.20;94.50;;;;;;3612957;39;20772;-35
2021/04/04 12:27:27;;;;;;;8.63;8.37;;;21.20;94.50;;;;;;3614329;39;20482;-35
2021/04/04 12:29:56;;;;;;;8.50;8.27;;;21.20;94.50;;;;;;3613946;39;20493;-35
2021/04/04 12:32:24;;;;;;;8.70;8.40;;;21.20;94.50;;;;;;3614568;39;20525;-35
2021/04/04 12:34:54;;;;;;;7.90;7.70;;;21.20;94.50;;;;;;3614929;39;20490;-35
2021/04/04 12:37:23;;;;;;;8.00;7.80;;;21.20;94.50;;;;;;3614931;39;20590;-34
2021/04/04 12:39:50;;;;;;;7.60;7.40;;;21.20;94.50;;;;;;3613281;39;20518;-35
2021/04/04 12:42:19;;;;;;;7.43;7.23;;;21.20;94.50;;;;;;3613266;39;20491;-34
2021/04/04 12:44:48;;;;;;;7.10;6.90;;;21.20;94.50;;;;;;3614278;39;20494;-34
2021/04/04 12:47:16;;;;;;;7.80;7.60;;;21.20;94.50;;;;;;3610201;39;20584;-34
2021/04/04 12:49:44;;;;;;;8.00;7.70;;;21.20;94.50;;;;;;3612430;39;20802;-34
2021/04/04 12:52:11;;;;;;;7.70;7.50;;;21.20;94.50;;;;;;3612840;39;20478;-34
2021/04/04 12:54:38;;;;;;;7.67;7.47;;;21.20;94.50;;;;;;3612585;39;20598;-35
2021/04/04 12:57:05;;;;;;;7.97;7.77;;;21.20;94.50;;;;;;3614157;39;20474;-35
2021/04/04 12:59:32;;;;;;;7.57;7.37;;;21.10;94.50;;;;;;3613259;39;20741;-34
2021/04/04 13:01:59;;;;;;;8.20;7.90;;;21.10;94.50;;;;;;3614069;39;20743;-35
2021/04/04 13:04:26;;;;;;;7.43;7.23;;;21.10;94.50;;;;;;3613119;39;20729;-35
2021/04/04 13:06:57;;;;;;;7.50;7.30;;;21.10;94.50;;;;;;3611922;39;20725;-35
2021/04/04 13:09:24;;;;;;;7.73;7.43;;;21.20;94.50;;;;;;3613747;39;20920;-35
2021/04/04 13:11:50;;;;;;;7.53;7.33;;;21.10;94.50;;;;;;3614432;39;20479;-33